sensor_id;sensor_type;location;lat;lon;timestamp;P1;durP1;ratioP1;P2;durP2;ratioP2
5898;SDS011;2975;50.956;6.962;2024-02-04T00:01:19;0.73;;;0.63;;
5898;SDS011;2975;50.956;6.962;2024-02-04T00:03:44;0.60;;;0.60;;
5898;SDS011;2975;50.956;6.962;2024-02-04T00:06:10;0.70;;;0.70;;
5898;SDS011;2975;50.956;6.962;2024-02-04T00:08:36;0.80;;;0.80;;
5898;SDS011;2975;50.956;6.962;2024-02-04T00:11:02;1.27;;;1.10;;
5898;SDS011;2975;50.956;6.962;2024-02-04T00:13:29;1.50;;;1.40;;
5898;SDS011;2975;50.956;6.962;2024-02-04T00:15:55;1.40;;;1.30;;
5898;SDS011;2975;50.956;6.962;2024-02-04T00:18:23;2.70;;;1.60;;
5898;SDS011;2975;50.956;6.962;2024-02-04T00:20:49;1.90;;;1.80;;
5898;SDS011;2975;50.956;6.962;2024-02-04T00:23:15;2.47;;;2.13;;
5898;SDS011;2975;50.956;6.962;2024-02-04T00:25:40;3.00;;;2.80;;
5898;SDS011;2975;50.956;6.962;2024-02-04T00:28:06;3.70;;;3.40;;
5898;SDS011;2975;50.956;6.962;2024-02-04T00:30:33;3.87;;;3.40;;
5898;SDS011;2975;50.956;6.962;2024-02-04T00:32:58;5.53;;;3.77;;
5898;SDS011;2975;50.956;6.962;2024-02-04T00:35:28;6.77;;;4.50;;
5898;SDS011;2975;50.956;6.962;2024-02-04T00:37:53;5.43;;;4.57;;
5898;SDS011;2975;50.956;6.962;2024-02-04T00:40:19;6.60;;;5.33;;
5898;SDS011;2975;50.956;6.962;2024-02-04T00:42:45;6.17;;;5.20;;
5898;SDS011;2975;50.956;6.962;2024-02-04T00:45:10;5.73;;;5.20;;
5898;SDS011;2975;50.956;6.962;2024-02-04T00:47:36;5.30;;;4.50;;
5898;SDS011;2975;50.956;6.962;2024-02-04T00:50:02;4.87;;;4.40;;
5898;SDS011;2975;50.956;6.962;2024-02-04T00:52:27;4.23;;;3.90;;
5898;SDS011;2975;50.956;6.962;2024-02-04T00:54:53;3.80;;;3.50;;
5898;SDS011;2975;50.956;6.962;2024-02-04T00:57:19;5.03;;;3.67;;
5898;SDS011;2975;50.956;6.962;2024-02-04T00:59:44;3.40;;;2.90;;
5898;SDS011;2975;50.956;6.962;2024-02-04T01:02:10;3.63;;;2.73;;
5898;SDS011;2975;50.956;6.962;2024-02-04T01:04:35;4.20;;;3.33;;
5898;SDS011;2975;50.956;6.962;2024-02-04T01:07:01;2.70;;;2.50;;
5898;SDS011;2975;50.956;6.962;2024-02-04T01:09:27;2.80;;;2.60;;
5898;SDS011;2975;50.956;6.962;2024-02-04T01:11:53;2.30;;;2.10;;
5898;SDS011;2975;50.956;6.962;2024-02-04T01:14:19;2.40;;;2.20;;
5898;SDS011;2975;50.956;6.962;2024-02-04T01:16:44;2.10;;;1.90;;
5898;SDS011;2975;50.956;6.962;2024-02-04T01:19:10;3.93;;;2.40;;
5898;SDS011;2975;50.956;6.962;2024-02-04T01:21:35;2.77;;;1.80;;
5898;SDS011;2975;50.956;6.962;2024-02-04T01:24:01;2.10;;;1.87;;
5898;SDS011;2975;50.956;6.962;2024-02-04T01:26:27;1.40;;;1.30;;
5898;SDS011;2975;50.956;6.962;2024-02-04T01:28:53;3.30;;;1.70;;
5898;SDS011;2975;50.956;6.962;2024-02-04T01:31:18;1.70;;;1.60;;
5898;SDS011;2975;50.956;6.962;2024-02-04T01:33:44;1.50;;;1.40;;
5898;SDS011;2975;50.956;6.962;2024-02-04T01:36:09;1.73;;;1.63;;
5898;SDS011;2975;50.956;6.962;2024-02-04T01:38:35;1.67;;;1.57;;
5898;SDS011;2975;50.956;6.962;2024-02-04T01:41:01;2.13;;;1.53;;
5898;SDS011;2975;50.956;6.962;2024-02-04T01:43:26;1.70;;;1.60;;
5898;SDS011;2975;50.956;6.962;2024-02-04T01:45:52;1.60;;;1.50;;
5898;SDS011;2975;50.956;6.962;2024-02-04T01:48:18;1.50;;;1.40;;
5898;SDS011;2975;50.956;6.962;2024-02-04T01:50:46;2.63;;;1.40;;
5898;SDS011;2975;50.956;6.962;2024-02-04T01:53:13;1.70;;;1.60;;
5898;SDS011;2975;50.956;6.962;2024-02-04T01:55:40;2.13;;;1.40;;
5898;SDS011;2975;50.956;6.962;2024-02-04T01:58:05;1.70;;;1.60;;
5898;SDS011;2975;50.956;6.962;2024-02-04T02:00:31;3.03;;;1.40;;
5898;SDS011;2975;50.956;6.962;2024-02-04T02:02:57;1.77;;;1.67;;
5898;SDS011;2975;50.956;6.962;2024-02-04T02:05:25;1.70;;;1.60;;
5898;SDS011;2975;50.956;6.962;2024-02-04T02:07:51;2.47;;;1.70;;
5898;SDS011;2975;50.956;6.962;2024-02-04T02:10:17;2.50;;;1.97;;
5898;SDS011;2975;50.956;6.962;2024-02-04T02:12:50;3.03;;;1.73;;
5898;SDS011;2975;50.956;6.962;2024-02-04T02:15:23;2.00;;;1.80;;
5898;SDS011;2975;50.956;6.962;2024-02-04T02:20:23;4.23;;;2.00;;
5898;SDS011;2975;50.956;6.962;2024-02-04T02:23:06;1.70;;;1.60;;
5898;SDS011;2975;50.956;6.962;2024-02-04T02:25:36;1.80;;;1.70;;
5898;SDS011;2975;50.956;6.962;2024-02-04T02:28:03;2.07;;;1.87;;
5898;SDS011;2975;50.956;6.962;2024-02-04T02:30:29;2.33;;;2.10;;
5898;SDS011;2975;50.956;6.962;2024-02-04T02:32:55;2.37;;;1.70;;
5898;SDS011;2975;50.956;6.962;2024-02-04T02:35:21;2.20;;;2.00;;
5898;SDS011;2975;50.956;6.962;2024-02-04T02:40:23;2.87;;;2.10;;
5898;SDS011;2975;50.956;6.962;2024-02-04T02:43:05;2.30;;;2.10;;
5898;SDS011;2975;50.956;6.962;2024-02-04T02:45:31;2.50;;;1.93;;
5898;SDS011;2975;50.956;6.962;2024-02-04T02:47:57;3.07;;;1.83;;
5898;SDS011;2975;50.956;6.962;2024-02-04T02:50:24;3.53;;;2.20;;
5898;SDS011;2975;50.956;6.962;2024-02-04T02:52:49;2.73;;;2.30;;
5898;SDS011;2975;50.956;6.962;2024-02-04T02:55:15;2.33;;;2.13;;
5898;SDS011;2975;50.956;6.962;2024-02-04T02:57:41;3.43;;;2.13;;
5898;SDS011;2975;50.956;6.962;2024-02-04T03:00:06;2.30;;;2.10;;
5898;SDS011;2975;50.956;6.962;2024-02-04T03:02:34;3.13;;;2.17;;
5898;SDS011;2975;50.956;6.962;2024-02-04T03:04:59;2.50;;;1.90;;
5898;SDS011;2975;50.956;6.962;2024-02-04T03:07:25;2.30;;;2.10;;
5898;SDS011;2975;50.956;6.962;2024-02-04T03:09:52;2.67;;;2.40;;
5898;SDS011;2975;50.956;6.962;2024-02-04T03:12:19;2.60;;;2.40;;
5898;SDS011;2975;50.956;6.962;2024-02-04T03:14:45;4.20;;;2.00;;
5898;SDS011;2975;50.956;6.962;2024-02-04T03:17:10;3.73;;;2.23;;
5898;SDS011;2975;50.956;6.962;2024-02-04T03:19:37;2.80;;;2.37;;
5898;SDS011;2975;50.956;6.962;2024-02-04T03:22:03;2.50;;;2.10;;
5898;SDS011;2975;50.956;6.962;2024-02-04T03:24:28;2.60;;;2.30;;
5898;SDS011;2975;50.956;6.962;2024-02-04T03:26:54;2.77;;;2.57;;
5898;SDS011;2975;50.956;6.962;2024-02-04T03:29:19;2.37;;;2.17;;
5898;SDS011;2975;50.956;6.962;2024-02-04T03:31:45;3.77;;;2.30;;
5898;SDS011;2975;50.956;6.962;2024-02-04T03:34:12;2.90;;;2.30;;
5898;SDS011;2975;50.956;6.962;2024-02-04T03:36:37;2.60;;;2.40;;
5898;SDS011;2975;50.956;6.962;2024-02-04T03:39:03;2.77;;;2.50;;
5898;SDS011;2975;50.956;6.962;2024-02-04T03:41:29;3.00;;;2.70;;
5898;SDS011;2975;50.956;6.962;2024-02-04T03:43:54;3.17;;;2.80;;
5898;SDS011;2975;50.956;6.962;2024-02-04T03:46:20;4.20;;;2.60;;
5898;SDS011;2975;50.956;6.962;2024-02-04T03:48:46;3.00;;;2.40;;
5898;SDS011;2975;50.956;6.962;2024-02-04T03:51:15;2.50;;;2.30;;
5898;SDS011;2975;50.956;6.962;2024-02-04T03:53:42;3.00;;;2.70;;
5898;SDS011;2975;50.956;6.962;2024-02-04T03:56:08;2.77;;;2.53;;
5898;SDS011;2975;50.956;6.962;2024-02-04T03:58:33;3.10;;;2.80;;
5898;SDS011;2975;50.956;6.962;2024-02-04T04:00:59;4.80;;;3.30;;
5898;SDS011;2975;50.956;6.962;2024-02-04T04:03:25;3.13;;;2.90;;
5898;SDS011;2975;50.956;6.962;2024-02-04T04:05:51;3.93;;;3.23;;
5898;SDS011;2975;50.956;6.962;2024-02-04T04:08:18;2.90;;;2.70;;
5898;SDS011;2975;50.956;6.962;2024-02-04T04:10:43;5.60;;;3.23;;
5898;SDS011;2975;50.956;6.962;2024-02-04T04:13:09;4.10;;;3.70;;
5898;SDS011;2975;50.956;6.962;2024-02-04T04:15:35;4.03;;;3.47;;
5898;SDS011;2975;50.956;6.962;2024-02-04T04:18:02;4.03;;;3.07;;
5898;SDS011;2975;50.956;6.962;2024-02-04T04:20:28;3.90;;;3.50;;
5898;SDS011;2975;50.956;6.962;2024-02-04T04:22:53;4.03;;;3.63;;
5898;SDS011;2975;50.956;6.962;2024-02-04T04:25:19;4.13;;;3.20;;
5898;SDS011;2975;50.956;6.962;2024-02-04T04:27:45;3.60;;;3.30;;
5898;SDS011;2975;50.956;6.962;2024-02-04T04:30:10;3.30;;;3.00;;
5898;SDS011;2975;50.956;6.962;2024-02-04T04:32:36;3.23;;;2.83;;
5898;SDS011;2975;50.956;6.962;2024-02-04T04:35:02;4.40;;;2.63;;
5898;SDS011;2975;50.956;6.962;2024-02-04T04:37:27;2.83;;;2.50;;
5898;SDS011;2975;50.956;6.962;2024-02-04T04:39:53;3.10;;;2.53;;
5898;SDS011;2975;50.956;6.962;2024-02-04T04:42:19;2.50;;;2.30;;
5898;SDS011;2975;50.956;6.962;2024-02-04T04:44:44;2.90;;;2.47;;
5898;SDS011;2975;50.956;6.962;2024-02-04T04:47:10;3.57;;;2.40;;
5898;SDS011;2975;50.956;6.962;2024-02-04T04:49:35;2.13;;;2.03;;
5898;SDS011;2975;50.956;6.962;2024-02-04T04:52:01;3.00;;;2.53;;
5898;SDS011;2975;50.956;6.962;2024-02-04T04:54:30;3.03;;;2.60;;
5898;SDS011;2975;50.956;6.962;2024-02-04T04:56:55;3.07;;;2.77;;
5898;SDS011;2975;50.956;6.962;2024-02-04T04:59:21;3.93;;;3.37;;
5898;SDS011;2975;50.956;6.962;2024-02-04T05:01:49;3.50;;;3.20;;
5898;SDS011;2975;50.956;6.962;2024-02-04T05:04:16;6.17;;;3.33;;
5898;SDS011;2975;50.956;6.962;2024-02-04T05:06:43;5.03;;;3.90;;
5898;SDS011;2975;50.956;6.962;2024-02-04T05:09:09;3.60;;;3.30;;
5898;SDS011;2975;50.956;6.962;2024-02-04T05:11:35;4.70;;;3.40;;
5898;SDS011;2975;50.956;6.962;2024-02-04T05:14:00;4.03;;;3.00;;
5898;SDS011;2975;50.956;6.962;2024-02-04T05:16:26;3.30;;;3.07;;
5898;SDS011;2975;50.956;6.962;2024-02-04T05:18:52;5.40;;;3.57;;
5898;SDS011;2975;50.956;6.962;2024-02-04T05:21:17;5.67;;;3.70;;
5898;SDS011;2975;50.956;6.962;2024-02-04T05:23:43;4.43;;;3.40;;
5898;SDS011;2975;50.956;6.962;2024-02-04T05:26:08;3.67;;;3.27;;
5898;SDS011;2975;50.956;6.962;2024-02-04T05:28:34;4.03;;;3.40;;
5898;SDS011;2975;50.956;6.962;2024-02-04T05:31:01;4.20;;;3.33;;
5898;SDS011;2975;50.956;6.962;2024-02-04T05:33:27;4.93;;;3.60;;
5898;SDS011;2975;50.956;6.962;2024-02-04T05:35:54;4.77;;;3.37;;
5898;SDS011;2975;50.956;6.962;2024-02-04T05:38:21;4.33;;;3.53;;
5898;SDS011;2975;50.956;6.962;2024-02-04T05:40:46;5.10;;;3.50;;
5898;SDS011;2975;50.956;6.962;2024-02-04T05:43:12;4.93;;;3.60;;
5898;SDS011;2975;50.956;6.962;2024-02-04T05:45:37;4.73;;;3.87;;
5898;SDS011;2975;50.956;6.962;2024-02-04T05:48:06;3.87;;;3.43;;
5898;SDS011;2975;50.956;6.962;2024-02-04T05:50:32;4.20;;;3.00;;
5898;SDS011;2975;50.956;6.962;2024-02-04T05:52:58;3.80;;;3.40;;
5898;SDS011;2975;50.956;6.962;2024-02-04T05:55:24;6.53;;;3.83;;
5898;SDS011;2975;50.956;6.962;2024-02-04T05:57:50;3.73;;;3.40;;
5898;SDS011;2975;50.956;6.962;2024-02-04T06:00:15;4.73;;;3.67;;
5898;SDS011;2975;50.956;6.962;2024-02-04T06:02:41;4.00;;;3.60;;
5898;SDS011;2975;50.956;6.962;2024-02-04T06:05:08;4.30;;;3.90;;
5898;SDS011;2975;50.956;6.962;2024-02-04T06:07:34;5.20;;;3.43;;
5898;SDS011;2975;50.956;6.962;2024-02-04T06:10:00;5.70;;;3.63;;
5898;SDS011;2975;50.956;6.962;2024-02-04T06:12:28;6.23;;;4.10;;
5898;SDS011;2975;50.956;6.962;2024-02-04T06:14:54;3.90;;;3.53;;
5898;SDS011;2975;50.956;6.962;2024-02-04T06:17:19;3.77;;;3.40;;
5898;SDS011;2975;50.956;6.962;2024-02-04T06:19:45;4.23;;;3.57;;
5898;SDS011;2975;50.956;6.962;2024-02-04T06:22:11;4.80;;;3.60;;
5898;SDS011;2975;50.956;6.962;2024-02-04T06:24:36;4.07;;;3.23;;
5898;SDS011;2975;50.956;6.962;2024-02-04T06:27:04;3.47;;;3.10;;
5898;SDS011;2975;50.956;6.962;2024-02-04T06:29:29;4.27;;;3.87;;
5898;SDS011;2975;50.956;6.962;2024-02-04T06:31:55;5.43;;;3.97;;
5898;SDS011;2975;50.956;6.962;2024-02-04T06:34:21;3.33;;;3.03;;
5898;SDS011;2975;50.956;6.962;2024-02-04T06:36:47;5.00;;;3.27;;
5898;SDS011;2975;50.956;6.962;2024-02-04T06:39:16;5.67;;;3.50;;
5898;SDS011;2975;50.956;6.962;2024-02-04T06:41:45;3.87;;;3.23;;
5898;SDS011;2975;50.956;6.962;2024-02-04T06:44:11;3.40;;;2.70;;
5898;SDS011;2975;50.956;6.962;2024-02-04T06:46:36;4.17;;;3.13;;
5898;SDS011;2975;50.956;6.962;2024-02-04T06:49:02;3.60;;;2.63;;
5898;SDS011;2975;50.956;6.962;2024-02-04T06:51:28;6.33;;;3.00;;
5898;SDS011;2975;50.956;6.962;2024-02-04T06:53:53;2.63;;;2.43;;
5898;SDS011;2975;50.956;6.962;2024-02-04T06:56:19;5.53;;;2.27;;
5898;SDS011;2975;50.956;6.962;2024-02-04T06:58:45;2.67;;;1.97;;
5898;SDS011;2975;50.956;6.962;2024-02-04T07:01:11;1.70;;;1.60;;
5898;SDS011;2975;50.956;6.962;2024-02-04T07:03:37;1.67;;;1.57;;
5898;SDS011;2975;50.956;6.962;2024-02-04T07:06:03;1.70;;;1.60;;
5898;SDS011;2975;50.956;6.962;2024-02-04T07:08:29;2.40;;;1.43;;
5898;SDS011;2975;50.956;6.962;2024-02-04T07:10:55;2.70;;;1.30;;
5898;SDS011;2975;50.956;6.962;2024-02-04T07:13:20;1.60;;;1.50;;
5898;SDS011;2975;50.956;6.962;2024-02-04T07:15:47;1.23;;;1.13;;
5898;SDS011;2975;50.956;6.962;2024-02-04T07:18:12;1.20;;;1.10;;
5898;SDS011;2975;50.956;6.962;2024-02-04T07:20:38;2.63;;;0.90;;
5898;SDS011;2975;50.956;6.962;2024-02-04T07:23:04;1.00;;;1.00;;
5898;SDS011;2975;50.956;6.962;2024-02-04T07:25:30;1.23;;;1.07;;
5898;SDS011;2975;50.956;6.962;2024-02-04T07:27:57;3.07;;;1.43;;
5898;SDS011;2975;50.956;6.962;2024-02-04T07:30:23;1.27;;;1.20;;
5898;SDS011;2975;50.956;6.962;2024-02-04T07:32:49;1.90;;;1.23;;
5898;SDS011;2975;50.956;6.962;2024-02-04T07:35:15;1.23;;;1.13;;
5898;SDS011;2975;50.956;6.962;2024-02-04T07:37:41;2.23;;;1.13;;
5898;SDS011;2975;50.956;6.962;2024-02-04T07:40:07;0.90;;;0.90;;
5898;SDS011;2975;50.956;6.962;2024-02-04T07:42:33;1.17;;;1.07;;
5898;SDS011;2975;50.956;6.962;2024-02-04T07:44:58;1.10;;;1.00;;
5898;SDS011;2975;50.956;6.962;2024-02-04T07:47:24;1.07;;;1.07;;
5898;SDS011;2975;50.956;6.962;2024-02-04T07:49:50;1.13;;;1.03;;
5898;SDS011;2975;50.956;6.962;2024-02-04T07:52:15;1.00;;;1.00;;
5898;SDS011;2975;50.956;6.962;2024-02-04T07:54:41;1.17;;;1.10;;
5898;SDS011;2975;50.956;6.962;2024-02-04T07:57:08;1.13;;;1.03;;
5898;SDS011;2975;50.956;6.962;2024-02-04T07:59:34;1.80;;;0.90;;
5898;SDS011;2975;50.956;6.962;2024-02-04T08:02:00;0.90;;;0.90;;
5898;SDS011;2975;50.956;6.962;2024-02-04T08:04:26;0.90;;;0.90;;
5898;SDS011;2975;50.956;6.962;2024-02-04T08:06:51;0.80;;;0.80;;
5898;SDS011;2975;50.956;6.962;2024-02-04T08:09:18;0.90;;;0.90;;
5898;SDS011;2975;50.956;6.962;2024-02-04T08:11:43;0.90;;;0.90;;
5898;SDS011;2975;50.956;6.962;2024-02-04T08:14:09;1.60;;;1.13;;
5898;SDS011;2975;50.956;6.962;2024-02-04T08:16:34;0.83;;;0.80;;
5898;SDS011;2975;50.956;6.962;2024-02-04T08:19:00;1.17;;;1.07;;
5898;SDS011;2975;50.956;6.962;2024-02-04T08:21:26;1.23;;;1.00;;
5898;SDS011;2975;50.956;6.962;2024-02-04T08:23:51;2.43;;;1.17;;
5898;SDS011;2975;50.956;6.962;2024-02-04T08:26:17;1.63;;;1.53;;
5898;SDS011;2975;50.956;6.962;2024-02-04T08:28:43;1.97;;;1.60;;
5898;SDS011;2975;50.956;6.962;2024-02-04T08:31:09;1.47;;;1.30;;
5898;SDS011;2975;50.956;6.962;2024-02-04T08:33:34;2.17;;;1.40;;
5898;SDS011;2975;50.956;6.962;2024-02-04T08:36:00;2.40;;;1.33;;
5898;SDS011;2975;50.956;6.962;2024-02-04T08:38:25;2.67;;;1.70;;
5898;SDS011;2975;50.956;6.962;2024-02-04T08:40:51;2.80;;;1.20;;
5898;SDS011;2975;50.956;6.962;2024-02-04T08:43:17;1.00;;;1.00;;
5898;SDS011;2975;50.956;6.962;2024-02-04T08:45:42;1.80;;;1.40;;
5898;SDS011;2975;50.956;6.962;2024-02-04T08:48:08;1.50;;;1.40;;
5898;SDS011;2975;50.956;6.962;2024-02-04T08:50:33;1.30;;;1.20;;
5898;SDS011;2975;50.956;6.962;2024-02-04T08:52:59;1.93;;;1.10;;
5898;SDS011;2975;50.956;6.962;2024-02-04T08:55:25;1.47;;;1.37;;
5898;SDS011;2975;50.956;6.962;2024-02-04T08:57:50;1.40;;;1.30;;
5898;SDS011;2975;50.956;6.962;2024-02-04T09:00:18;1.23;;;1.13;;
5898;SDS011;2975;50.956;6.962;2024-02-04T09:02:44;1.30;;;1.20;;
5898;SDS011;2975;50.956;6.962;2024-02-04T09:05:11;1.03;;;1.03;;
5898;SDS011;2975;50.956;6.962;2024-02-04T09:07:37;1.30;;;1.10;;
5898;SDS011;2975;50.956;6.962;2024-02-04T09:10:04;1.03;;;1.03;;
5898;SDS011;2975;50.956;6.962;2024-02-04T09:12:29;0.80;;;0.80;;
5898;SDS011;2975;50.956;6.962;2024-02-04T09:14:55;0.80;;;0.80;;
5898;SDS011;2975;50.956;6.962;2024-02-04T09:17:21;0.77;;;0.77;;
5898;SDS011;2975;50.956;6.962;2024-02-04T09:19:46;0.63;;;0.63;;
5898;SDS011;2975;50.956;6.962;2024-02-04T09:22:13;1.13;;;0.90;;
5898;SDS011;2975;50.956;6.962;2024-02-04T09:24:38;0.70;;;0.70;;
5898;SDS011;2975;50.956;6.962;2024-02-04T09:27:04;0.70;;;0.70;;
5898;SDS011;2975;50.956;6.962;2024-02-04T09:29:29;1.33;;;0.70;;
5898;SDS011;2975;50.956;6.962;2024-02-04T09:31:55;1.77;;;0.80;;
5898;SDS011;2975;50.956;6.962;2024-02-04T09:34:21;0.67;;;0.60;;
5898;SDS011;2975;50.956;6.962;2024-02-04T09:36:47;1.90;;;0.83;;
5898;SDS011;2975;50.956;6.962;2024-02-04T09:39:12;0.60;;;0.60;;
5898;SDS011;2975;50.956;6.962;2024-02-04T09:41:38;0.60;;;0.60;;
5898;SDS011;2975;50.956;6.962;2024-02-04T09:44:03;0.60;;;0.60;;
5898;SDS011;2975;50.956;6.962;2024-02-04T09:46:30;1.13;;;0.90;;
5898;SDS011;2975;50.956;6.962;2024-02-04T09:48:56;0.60;;;0.60;;
5898;SDS011;2975;50.956;6.962;2024-02-04T09:51:22;0.87;;;0.87;;
5898;SDS011;2975;50.956;6.962;2024-02-04T09:53:51;0.60;;;0.60;;
5898;SDS011;2975;50.956;6.962;2024-02-04T09:56:18;0.60;;;0.60;;
5898;SDS011;2975;50.956;6.962;2024-02-04T09:58:47;0.77;;;0.77;;
5898;SDS011;2975;50.956;6.962;2024-02-04T10:01:12;0.77;;;0.73;;
5898;SDS011;2975;50.956;6.962;2024-02-04T10:03:40;0.93;;;0.93;;
5898;SDS011;2975;50.956;6.962;2024-02-04T10:06:06;1.80;;;0.80;;
5898;SDS011;2975;50.956;6.962;2024-02-04T10:08:32;0.93;;;0.93;;
5898;SDS011;2975;50.956;6.962;2024-02-04T10:10:59;0.80;;;0.80;;
5898;SDS011;2975;50.956;6.962;2024-02-04T10:13:25;1.37;;;0.90;;
5898;SDS011;2975;50.956;6.962;2024-02-04T10:15:51;1.10;;;1.00;;
5898;SDS011;2975;50.956;6.962;2024-02-04T10:18:17;1.80;;;1.10;;
5898;SDS011;2975;50.956;6.962;2024-02-04T10:20:43;1.00;;;0.90;;
5898;SDS011;2975;50.956;6.962;2024-02-04T10:23:09;1.00;;;0.90;;
5898;SDS011;2975;50.956;6.962;2024-02-04T10:25:34;0.83;;;0.83;;
5898;SDS011;2975;50.956;6.962;2024-02-04T10:28:00;2.57;;;0.90;;
5898;SDS011;2975;50.956;6.962;2024-02-04T10:30:26;2.20;;;1.10;;
5898;SDS011;2975;50.956;6.962;2024-02-04T10:32:52;1.57;;;0.90;;
5898;SDS011;2975;50.956;6.962;2024-02-04T10:35:22;2.57;;;1.20;;
5898;SDS011;2975;50.956;6.962;2024-02-04T10:37:51;1.70;;;1.10;;
5898;SDS011;2975;50.956;6.962;2024-02-04T10:40:18;1.43;;;1.33;;
5898;SDS011;2975;50.956;6.962;2024-02-04T10:42:44;1.33;;;1.23;;
5898;SDS011;2975;50.956;6.962;2024-02-04T10:45:10;1.53;;;1.43;;
5898;SDS011;2975;50.956;6.962;2024-02-04T10:47:39;2.97;;;1.27;;
5898;SDS011;2975;50.956;6.962;2024-02-04T10:50:06;1.47;;;1.33;;
5898;SDS011;2975;50.956;6.962;2024-02-04T10:52:36;2.93;;;1.33;;
5898;SDS011;2975;50.956;6.962;2024-02-04T10:55:08;1.53;;;1.07;;
5898;SDS011;2975;50.956;6.962;2024-02-04T10:57:36;2.50;;;1.50;;
5898;SDS011;2975;50.956;6.962;2024-02-04T11:00:03;1.50;;;1.33;;
5898;SDS011;2975;50.956;6.962;2024-02-04T11:02:36;0.80;;;0.80;;
5898;SDS011;2975;50.956;6.962;2024-02-04T11:05:03;0.90;;;0.90;;
5898;SDS011;2975;50.956;6.962;2024-02-04T11:07:32;0.90;;;0.90;;
5898;SDS011;2975;50.956;6.962;2024-02-04T11:10:01;0.80;;;0.80;;
5898;SDS011;2975;50.956;6.962;2024-02-04T11:12:28;0.70;;;0.70;;
5898;SDS011;2975;50.956;6.962;2024-02-04T11:14:56;1.83;;;0.80;;
5898;SDS011;2975;50.956;6.962;2024-02-04T11:17:33;1.00;;;0.57;;
5898;SDS011;2975;50.956;6.962;2024-02-04T11:26:00;2.60;;;0.70;;
5898;SDS011;2975;50.956;6.962;2024-02-04T11:28:26;0.60;;;0.60;;
5898;SDS011;2975;50.956;6.962;2024-02-04T11:30:52;1.37;;;0.80;;
5898;SDS011;2975;50.956;6.962;2024-02-04T11:33:18;1.37;;;1.00;;
5898;SDS011;2975;50.956;6.962;2024-02-04T11:35:45;1.03;;;0.70;;
5898;SDS011;2975;50.956;6.962;2024-02-04T11:38:10;0.83;;;0.60;;
5898;SDS011;2975;50.956;6.962;2024-02-04T11:40:38;2.50;;;0.50;;
5898;SDS011;2975;50.956;6.962;2024-02-04T11:45:30;0.43;;;0.43;;
5898;SDS011;2975;50.956;6.962;2024-02-04T11:48:02;1.73;;;0.90;;
5898;SDS011;2975;50.956;6.962;2024-02-04T11:50:29;0.70;;;0.70;;
5898;SDS011;2975;50.956;6.962;2024-02-04T11:53:29;0.80;;;0.80;;
5898;SDS011;2975;50.956;6.962;2024-02-04T11:55:48;0.80;;;0.80;;
5898;SDS011;2975;50.956;6.962;2024-02-04T11:58:18;1.73;;;0.90;;
5898;SDS011;2975;50.956;6.962;2024-02-04T12:00:44;1.97;;;1.17;;
5898;SDS011;2975;50.956;6.962;2024-02-04T12:03:11;2.23;;;0.90;;
5898;SDS011;2975;50.956;6.962;2024-02-04T12:05:37;1.27;;;1.17;;
5898;SDS011;2975;50.956;6.962;2024-02-04T12:08:06;3.27;;;1.00;;
5898;SDS011;2975;50.956;6.962;2024-02-04T12:10:33;1.37;;;1.00;;
5898;SDS011;2975;50.956;6.962;2024-02-04T12:13:02;1.00;;;0.93;;
5898;SDS011;2975;50.956;6.962;2024-02-04T12:15:29;0.90;;;0.90;;
5898;SDS011;2975;50.956;6.962;2024-02-04T12:18:10;1.70;;;0.90;;
5898;SDS011;2975;50.956;6.962;2024-02-04T12:20:37;1.47;;;1.10;;
5898;SDS011;2975;50.956;6.962;2024-02-04T12:23:03;1.07;;;1.07;;
5898;SDS011;2975;50.956;6.962;2024-02-04T12:25:29;1.93;;;1.13;;
5898;SDS011;2975;50.956;6.962;2024-02-04T12:27:59;1.10;;;1.00;;
5898;SDS011;2975;50.956;6.962;2024-02-04T12:30:27;1.60;;;1.00;;
5898;SDS011;2975;50.956;6.962;2024-02-04T12:32:57;0.77;;;0.77;;
5898;SDS011;2975;50.956;6.962;2024-02-04T12:35:23;0.77;;;0.77;;
5898;SDS011;2975;50.956;6.962;2024-02-04T12:37:53;0.70;;;0.70;;
5898;SDS011;2975;50.956;6.962;2024-02-04T12:40:23;1.50;;;0.93;;
5898;SDS011;2975;50.956;6.962;2024-02-04T12:43:01;1.17;;;1.07;;
5898;SDS011;2975;50.956;6.962;2024-02-04T12:45:28;0.77;;;0.77;;
5898;SDS011;2975;50.956;6.962;2024-02-04T12:47:55;2.57;;;0.77;;
5898;SDS011;2975;50.956;6.962;2024-02-04T12:50:22;0.73;;;0.70;;
5898;SDS011;2975;50.956;6.962;2024-02-04T12:52:48;0.67;;;0.67;;
5898;SDS011;2975;50.956;6.962;2024-02-04T12:58:01;0.87;;;0.80;;
5898;SDS011;2975;50.956;6.962;2024-02-04T13:00:30;1.67;;;0.87;;
5898;SDS011;2975;50.956;6.962;2024-02-04T13:02:57;0.73;;;0.67;;
5898;SDS011;2975;50.956;6.962;2024-02-04T13:05:24;0.80;;;0.80;;
5898;SDS011;2975;50.956;6.962;2024-02-04T13:07:54;0.50;;;0.50;;
5898;SDS011;2975;50.956;6.962;2024-02-04T13:10:26;1.47;;;1.10;;
5898;SDS011;2975;50.956;6.962;2024-02-04T13:12:59;0.90;;;0.90;;
5898;SDS011;2975;50.956;6.962;2024-02-04T13:15:39;0.80;;;0.80;;
5898;SDS011;2975;50.956;6.962;2024-02-04T13:18:05;1.30;;;0.90;;
5898;SDS011;2975;50.956;6.962;2024-02-04T13:20:31;1.70;;;0.80;;
5898;SDS011;2975;50.956;6.962;2024-02-04T13:22:57;1.23;;;1.10;;
5898;SDS011;2975;50.956;6.962;2024-02-04T13:25:25;1.13;;;0.90;;
5898;SDS011;2975;50.956;6.962;2024-02-04T13:27:51;1.00;;;1.00;;
5898;SDS011;2975;50.956;6.962;2024-02-04T13:30:17;1.60;;;1.00;;
5898;SDS011;2975;50.956;6.962;2024-02-04T13:32:44;1.00;;;1.00;;
5898;SDS011;2975;50.956;6.962;2024-02-04T13:35:10;1.33;;;0.93;;
5898;SDS011;2975;50.956;6.962;2024-02-04T13:37:37;1.40;;;1.30;;
5898;SDS011;2975;50.956;6.962;2024-02-04T13:40:04;0.93;;;0.90;;
5898;SDS011;2975;50.956;6.962;2024-02-04T13:42:31;2.23;;;1.40;;
5898;SDS011;2975;50.956;6.962;2024-02-04T13:44:58;0.90;;;0.90;;
5898;SDS011;2975;50.956;6.962;2024-02-04T13:47:24;1.30;;;1.00;;
5898;SDS011;2975;50.956;6.962;2024-02-04T13:49:50;1.77;;;1.00;;
5898;SDS011;2975;50.956;6.962;2024-02-04T13:52:15;0.90;;;0.90;;
5898;SDS011;2975;50.956;6.962;2024-02-04T13:54:41;0.90;;;0.90;;
5898;SDS011;2975;50.956;6.962;2024-02-04T13:57:06;2.33;;;1.20;;
5898;SDS011;2975;50.956;6.962;2024-02-04T13:59:32;1.47;;;1.00;;
5898;SDS011;2975;50.956;6.962;2024-02-04T14:01:58;2.53;;;1.10;;
5898;SDS011;2975;50.956;6.962;2024-02-04T14:04:23;0.73;;;0.73;;
5898;SDS011;2975;50.956;6.962;2024-02-04T14:06:49;1.10;;;1.00;;
5898;SDS011;2975;50.956;6.962;2024-02-04T14:09:14;1.60;;;0.90;;
5898;SDS011;2975;50.956;6.962;2024-02-04T14:11:41;0.97;;;0.80;;
5898;SDS011;2975;50.956;6.962;2024-02-04T14:14:06;0.80;;;0.80;;
5898;SDS011;2975;50.956;6.962;2024-02-04T14:16:32;1.10;;;1.00;;
5898;SDS011;2975;50.956;6.962;2024-02-04T14:18:58;0.80;;;0.80;;
5898;SDS011;2975;50.956;6.962;2024-02-04T14:21:23;0.63;;;0.63;;
5898;SDS011;2975;50.956;6.962;2024-02-04T14:23:49;0.57;;;0.57;;
5898;SDS011;2975;50.956;6.962;2024-02-04T14:26:18;1.30;;;0.73;;
5898;SDS011;2975;50.956;6.962;2024-02-04T14:28:45;1.03;;;0.87;;
5898;SDS011;2975;50.956;6.962;2024-02-04T14:31:10;0.70;;;0.70;;
5898;SDS011;2975;50.956;6.962;2024-02-04T14:33:36;0.73;;;0.73;;
5898;SDS011;2975;50.956;6.962;2024-02-04T14:36:01;0.60;;;0.60;;
5898;SDS011;2975;50.956;6.962;2024-02-04T14:38:28;2.00;;;1.10;;
5898;SDS011;2975;50.956;6.962;2024-02-04T14:40:55;1.00;;;0.80;;
5898;SDS011;2975;50.956;6.962;2024-02-04T14:43:23;1.00;;;0.97;;
5898;SDS011;2975;50.956;6.962;2024-02-04T14:45:49;1.00;;;0.90;;
5898;SDS011;2975;50.956;6.962;2024-02-04T14:48:14;0.77;;;0.77;;
5898;SDS011;2975;50.956;6.962;2024-02-04T14:50:40;0.80;;;0.80;;
5898;SDS011;2975;50.956;6.962;2024-02-04T14:53:06;1.00;;;0.80;;
5898;SDS011;2975;50.956;6.962;2024-02-04T14:55:34;0.80;;;0.80;;
5898;SDS011;2975;50.956;6.962;2024-02-04T14:58:00;0.70;;;0.70;;
5898;SDS011;2975;50.956;6.962;2024-02-04T15:00:25;1.03;;;0.90;;
5898;SDS011;2975;50.956;6.962;2024-02-04T15:02:53;2.17;;;1.03;;
5898;SDS011;2975;50.956;6.962;2024-02-04T15:05:19;1.27;;;1.20;;
5898;SDS011;2975;50.956;6.962;2024-02-04T15:07:47;0.93;;;0.93;;
5898;SDS011;2975;50.956;6.962;2024-02-04T15:10:13;0.97;;;0.90;;
5898;SDS011;2975;50.956;6.962;2024-02-04T15:12:38;0.90;;;0.90;;
5898;SDS011;2975;50.956;6.962;2024-02-04T15:15:05;0.80;;;0.80;;
5898;SDS011;2975;50.956;6.962;2024-02-04T15:17:31;2.03;;;1.10;;
5898;SDS011;2975;50.956;6.962;2024-02-04T15:19:58;2.63;;;1.10;;
5898;SDS011;2975;50.956;6.962;2024-02-04T15:22:24;1.30;;;1.00;;
5898;SDS011;2975;50.956;6.962;2024-02-04T15:24:49;1.77;;;1.67;;
5898;SDS011;2975;50.956;6.962;2024-02-04T15:27:16;1.77;;;1.23;;